< < Back
Terminal Aerodrome Forecast


Current Version              Previous Versions:   1  2  3  4  5  6  7  8  9  

Terminal Aerodrome Forecast

959
FTUS42 KTAE 300527
TAFABY
TAF
KABY 300527Z 3006/0106 00000KT P6SM SCT250
     FM300800 00000KT 5SM BR SCT003
     FM301300 16006KT P6SM SCT020
     FM301700 19008KT P6SM SCT050
     FM010200 17004KT P6SM SCT250=

Latest METAR

311
SAUS70 KWBC 302000 RRB
MTRABY
METAR KABY 301953Z 21013KT 10SM CLR 32/17 A2992 RMK AO2 SLP129
T03170172


USA.gov is the U.S. government's official web portal to all federal, state and local government web resources and services.